createdAt,value
2018-12-19T00:02:48.373Z,57.82
2018-12-19T00:05:22.176Z,57.76
2018-12-19T00:07:55.991Z,57.79
2018-12-19T00:10:30.049Z,57.68
2018-12-19T00:13:03.896Z,57.62
2018-12-19T00:15:38.074Z,57.62
2018-12-19T00:18:12.552Z,57.47
2018-12-19T00:20:46.355Z,57.40
2018-12-19T00:23:20.237Z,57.53
2018-12-19T00:25:54.079Z,57.65
2018-12-19T00:28:27.810Z,57.78
2018-12-19T00:31:02.311Z,57.82
2018-12-19T00:33:36.180Z,57.80
2018-12-19T00:36:10.037Z,57.93
2018-12-19T00:38:43.820Z,57.95
2018-12-19T00:43:59.281Z,58.25
2018-12-19T00:46:33.121Z,58.30
2018-12-19T00:49:06.929Z,58.35
2018-12-19T00:51:40.689Z,58.38
2018-12-19T00:54:14.558Z,58.35
2018-12-19T00:56:49.090Z,58.21
2018-12-19T00:59:22.848Z,58.15
2018-12-19T01:01:56.623Z,58.15
2018-12-19T01:04:30.725Z,57.97
2018-12-19T01:07:05.272Z,57.83
2018-12-19T01:09:39.039Z,57.71
2018-12-19T01:12:12.768Z,57.68
2018-12-19T01:14:46.591Z,57.46
2018-12-19T01:17:20.380Z,57.30
2018-12-19T01:19:54.893Z,57.26
2018-12-19T01:22:29.687Z,57.19
2018-12-19T01:25:03.633Z,57.29
2018-12-19T01:27:37.658Z,57.36
2018-12-19T01:30:11.465Z,57.13
2018-12-19T01:32:45.550Z,57.34
2018-12-19T01:35:19.302Z,57.24
2018-12-19T01:37:53.065Z,57.39
2018-12-19T01:40:27.553Z,57.39
2018-12-19T01:43:01.294Z,57.44
2018-12-19T01:45:36.115Z,57.49
2018-12-19T01:48:09.929Z,57.69
2018-12-19T01:50:43.748Z,57.70
2018-12-19T01:53:18.235Z,57.96
2018-12-19T01:55:52.784Z,58.21
2018-12-19T01:58:27.279Z,58.29
2018-12-19T02:01:01.721Z,58.29
2018-12-19T02:03:35.753Z,58.60
2018-12-19T02:06:10.272Z,58.69
2018-12-19T02:08:44.813Z,58.73
2018-12-19T02:11:18.597Z,58.56
2018-12-19T02:13:53.396Z,59.04
2018-12-19T02:16:27.129Z,59.02
2018-12-19T02:19:01.589Z,58.87
2018-12-19T02:21:35.295Z,58.82
2018-12-19T02:24:09.112Z,58.95
2018-12-19T02:26:42.918Z,58.99
2018-12-19T02:29:17.058Z,59.05
2018-12-19T02:31:50.885Z,59.25
2018-12-19T02:34:24.736Z,58.97
2018-12-19T02:36:58.484Z,59.21
2018-12-19T02:39:36.144Z,58.93
2018-12-19T02:42:06.133Z,58.75
2018-12-19T02:44:40.254Z,58.72
2018-12-19T02:47:14.045Z,58.98
2018-12-19T02:49:48.601Z,59.35
2018-12-19T02:52:22.395Z,59.22
2018-12-19T02:54:56.146Z,59.24
2018-12-19T02:57:29.923Z,59.17
2018-12-19T03:00:03.661Z,59.27
2018-12-19T03:02:37.502Z,59.53
2018-12-19T03:05:11.297Z,59.59
2018-12-19T03:07:45.868Z,59.38
2018-12-19T03:10:20.201Z,59.46
2018-12-19T03:12:54.065Z,59.30
2018-12-19T03:15:28.137Z,59.12
2018-12-19T03:18:02.203Z,59.15
2018-12-19T03:20:35.980Z,59.09
2018-12-19T03:23:10.542Z,58.80
2018-12-19T03:25:44.284Z,58.73
2018-12-19T03:28:18.039Z,58.56
2018-12-19T03:30:53.327Z,58.95
2018-12-19T03:33:26.549Z,59.76
2018-12-19T03:36:01.047Z,60.29
2018-12-19T03:38:34.907Z,60.62
2018-12-19T03:41:08.713Z,61.02
2018-12-19T03:43:42.469Z,61.06
2018-12-19T03:46:16.979Z,61.96
2018-12-19T03:48:56.916Z,62.25
2018-12-19T03:51:30.829Z,62.83
2018-12-19T03:54:04.689Z,62.92
2018-12-19T03:56:39.533Z,62.79
2018-12-19T03:59:13.315Z,62.80
2018-12-19T04:01:47.109Z,62.70
2018-12-19T04:04:21.646Z,62.45
2018-12-19T04:06:56.113Z,62.59
2018-12-19T04:09:29.897Z,62.95
2018-12-19T04:12:03.614Z,63.10
2018-12-19T04:14:37.501Z,62.49
2018-12-19T04:17:11.161Z,62.36
2018-12-19T04:19:44.910Z,62.54
2018-12-19T04:22:18.729Z,62.74
2018-12-19T04:24:52.795Z,62.54
2018-12-19T04:30:08.185Z,62.64
2018-12-19T04:32:41.988Z,62.57
2018-12-19T04:37:55.288Z,62.69
2018-12-19T04:40:29.334Z,62.49
2018-12-19T04:43:03.127Z,62.61
2018-12-19T04:45:36.923Z,62.33
2018-12-19T04:48:10.649Z,62.42
2018-12-19T04:50:44.431Z,62.32
2018-12-19T04:53:18.204Z,62.20
2018-12-19T04:55:52.717Z,62.50
2018-12-19T04:58:27.209Z,62.74
2018-12-19T05:01:01.234Z,63.80
2018-12-19T05:03:35.786Z,63.86
2018-12-19T05:06:10.550Z,63.82
2018-12-19T05:08:44.336Z,64.70
2018-12-19T05:11:18.118Z,65.94
2018-12-19T05:13:52.649Z,66.32
2018-12-19T05:16:27.230Z,66.35
2018-12-19T05:19:00.970Z,66.54
2018-12-19T05:21:35.587Z,66.81
2018-12-19T05:24:09.353Z,67.54
2018-12-19T05:26:43.181Z,67.48
2018-12-19T05:29:16.932Z,68.21
2018-12-19T05:31:51.512Z,68.08
2018-12-19T05:34:25.293Z,67.80
2018-12-19T05:36:59.887Z,67.82
2018-12-19T05:39:33.673Z,67.82
2018-12-19T05:42:08.503Z,68.68
2018-12-19T05:44:43.040Z,68.81
2018-12-19T05:47:17.497Z,68.83
2018-12-19T05:49:51.352Z,68.59
2018-12-19T05:52:26.235Z,68.85
2018-12-19T05:55:00.004Z,69.03
2018-12-19T05:57:33.734Z,69.67
2018-12-19T06:00:08.516Z,69.75
2018-12-19T06:02:42.349Z,69.79
2018-12-19T06:05:16.175Z,69.38
2018-12-19T06:07:49.933Z,69.73
2018-12-19T06:10:26.327Z,69.75
2018-12-19T06:12:57.753Z,70.12
2018-12-19T06:15:31.479Z,69.91
2018-12-19T06:18:05.939Z,70.57
2018-12-19T06:20:39.733Z,71.24
2018-12-19T06:23:13.536Z,70.96
2018-12-19T06:25:47.288Z,71.09
2018-12-19T06:31:02.780Z,70.23
2018-12-19T06:33:36.602Z,70.26
2018-12-19T06:36:10.776Z,70.38
2018-12-19T06:38:44.526Z,70.82
2018-12-19T06:41:19.755Z,70.65
2018-12-19T06:43:53.573Z,70.16
2018-12-19T06:46:27.341Z,70.98
2018-12-19T06:49:01.414Z,70.80
2018-12-19T06:51:35.200Z,70.94
2018-12-19T06:54:08.939Z,70.79
2018-12-19T06:56:42.652Z,71.05
2018-12-19T06:59:17.154Z,71.19
2018-12-19T07:01:50.972Z,71.06
2018-12-19T07:04:24.753Z,71.41
2018-12-19T07:06:58.562Z,71.49
2018-12-19T07:09:33.182Z,71.57
2018-12-19T07:12:07.689Z,71.24
2018-12-19T07:14:42.287Z,71.24
2018-12-19T07:17:16.093Z,71.22
2018-12-19T07:19:49.940Z,71.39
2018-12-19T07:22:24.421Z,71.30
2018-12-19T07:24:58.239Z,71.09
2018-12-19T07:27:32.005Z,71.12
2018-12-19T07:30:06.000Z,71.49
2018-12-19T07:32:40.824Z,71.65
2018-12-19T07:35:15.376Z,71.63
2018-12-19T07:37:49.157Z,71.24
2018-12-19T07:40:23.601Z,71.28
2018-12-19T07:42:57.393Z,70.97
2018-12-19T07:45:31.159Z,71.45
2018-12-19T07:48:04.936Z,71.69
2018-12-19T07:50:38.674Z,71.62
2018-12-19T07:53:12.443Z,71.55
2018-12-19T07:55:46.256Z,71.53
2018-12-19T07:58:20.059Z,71.73
2018-12-19T08:00:53.841Z,71.67
2018-12-19T08:03:27.582Z,71.47
2018-12-19T08:06:01.411Z,72.10
2018-12-19T08:08:35.257Z,72.04
2018-12-19T08:11:09.013Z,72.19
2018-12-19T08:13:42.837Z,71.81
2018-12-19T08:16:16.665Z,71.20
2018-12-19T08:18:50.442Z,71.71
2018-12-19T08:21:24.175Z,71.65
2018-12-19T08:23:57.961Z,71.91
2018-12-19T08:26:32.540Z,71.57
2018-12-19T08:29:06.346Z,71.64
2018-12-19T08:31:40.132Z,71.76
2018-12-19T08:34:13.901Z,71.23
2018-12-19T08:36:48.695Z,71.29
2018-12-19T08:39:22.563Z,71.65
2018-12-19T08:41:56.296Z,71.77
2018-12-19T08:44:30.215Z,71.74
2018-12-19T08:52:25.494Z,71.93
2018-12-19T08:57:38.709Z,71.50
2018-12-19T09:00:14.364Z,71.11
2018-12-19T09:02:48.491Z,71.17
2018-12-19T09:08:04.389Z,71.04
2018-12-19T09:13:20.318Z,70.94
2018-12-19T09:21:20.056Z,70.69
2018-12-19T09:23:53.845Z,70.62
2018-12-19T09:26:27.805Z,70.79
2018-12-19T09:31:41.906Z,70.50
2018-12-19T09:34:16.357Z,70.69
2018-12-19T09:36:50.214Z,70.68
2018-12-19T09:39:23.989Z,70.71
2018-12-19T09:44:44.359Z,70.58
2018-12-19T09:47:18.461Z,70.54
2018-12-19T09:49:52.269Z,70.34
2018-12-19T09:52:26.025Z,70.40
2018-12-19T09:55:00.476Z,70.58
2018-12-19T09:57:34.283Z,70.17
2018-12-19T10:00:27.975Z,69.91
2018-12-19T10:03:01.781Z,70.04
2018-12-19T10:05:35.894Z,70.52
2018-12-19T10:08:09.652Z,70.22
2018-12-19T10:10:43.564Z,70.27
2018-12-19T10:13:18.079Z,70.22
2018-12-19T10:15:53.322Z,70.28
2018-12-19T10:18:27.408Z,70.54
2018-12-19T10:21:01.165Z,70.64
2018-12-19T10:23:35.005Z,70.62
2018-12-19T10:26:15.170Z,70.52
2018-12-19T10:28:48.957Z,70.52
2018-12-19T10:36:44.354Z,70.24
2018-12-19T10:39:18.908Z,70.28
2018-12-19T10:41:52.685Z,70.38
2018-12-19T10:47:15.961Z,70.07
2018-12-19T10:49:50.533Z,70.35
2018-12-19T10:52:24.353Z,70.26
2018-12-19T10:54:59.135Z,70.26
2018-12-19T10:57:33.913Z,70.33
2018-12-19T11:03:36.214Z,70.59
2018-12-19T11:06:09.982Z,70.08
2018-12-19T11:08:43.801Z,70.01
2018-12-19T11:11:17.604Z,70.21
2018-12-19T11:13:51.341Z,70.26
2018-12-19T11:16:25.855Z,69.83
2018-12-19T11:19:00.482Z,69.86
2018-12-19T11:21:34.650Z,69.60
2018-12-19T11:24:09.127Z,69.17
2018-12-19T11:26:42.905Z,68.83
2018-12-19T11:29:16.944Z,68.88
2018-12-19T11:31:50.702Z,68.86
2018-12-19T11:34:24.509Z,68.76
2018-12-19T11:36:58.259Z,68.31
2018-12-19T11:39:32.040Z,68.24
2018-12-19T11:44:47.380Z,67.71
2018-12-19T11:47:21.184Z,67.63
2018-12-19T11:49:55.035Z,67.60
2018-12-19T11:52:28.818Z,67.08
2018-12-19T11:55:03.369Z,66.60
2018-12-19T11:57:37.227Z,66.35
2018-12-19T12:00:12.067Z,65.60
2018-12-19T12:02:46.125Z,65.17
2018-12-19T12:05:19.895Z,64.88
2018-12-19T12:07:54.365Z,65.25
2018-12-19T12:10:28.136Z,65.30
2018-12-19T12:13:01.921Z,65.21
2018-12-19T12:15:36.487Z,64.94
2018-12-19T12:18:10.237Z,64.69
2018-12-19T12:20:44.182Z,64.61
2018-12-19T12:23:18.744Z,64.60
2018-12-19T12:25:52.528Z,64.44
2018-12-19T12:28:26.308Z,64.06
2018-12-19T12:31:00.816Z,64.18
2018-12-19T12:33:34.629Z,64.00
2018-12-19T12:36:09.088Z,63.86
2018-12-19T12:38:43.318Z,63.31
2018-12-19T12:43:56.608Z,63.17
2018-12-19T12:46:30.342Z,63.82
2018-12-19T12:51:45.545Z,64.31
2018-12-19T12:54:19.296Z,63.72
2018-12-19T12:56:53.200Z,63.42
2018-12-19T12:59:27.015Z,62.64
2018-12-19T13:02:02.233Z,61.58
2018-12-19T13:09:55.589Z,60.12
2018-12-19T13:12:29.363Z,60.03
2018-12-19T13:15:04.666Z,59.58
2018-12-19T13:17:38.436Z,59.80
2018-12-19T13:20:12.895Z,60.47
2018-12-19T13:22:46.707Z,60.77
2018-12-19T13:25:20.496Z,61.15
2018-12-19T13:27:54.316Z,61.31
2018-12-19T13:30:28.361Z,61.40
2018-12-19T13:35:45.557Z,61.43
2018-12-19T13:38:19.320Z,61.70
2018-12-19T13:46:17.434Z,62.49
2018-12-19T13:48:52.127Z,63.08
2018-12-19T13:51:25.926Z,63.48
2018-12-19T13:53:59.704Z,63.04
2018-12-19T13:56:33.737Z,62.29
2018-12-19T14:01:50.473Z,61.27
2018-12-19T14:04:24.201Z,60.86
2018-12-19T14:06:58.751Z,60.83
2018-12-19T14:09:32.556Z,61.10
2018-12-19T14:12:12.124Z,61.25
2018-12-19T14:14:40.189Z,61.56
2018-12-19T14:17:14.020Z,61.59
2018-12-19T14:19:47.821Z,61.88
2018-12-19T14:22:21.596Z,61.76
2018-12-19T14:24:55.336Z,62.28
2018-12-19T14:27:29.278Z,62.32
2018-12-19T14:32:43.368Z,62.19
2018-12-19T14:35:17.876Z,62.07
2018-12-19T14:40:32.231Z,62.46
2018-12-19T14:43:05.950Z,62.66
2018-12-19T14:48:20.010Z,62.90
2018-12-19T14:50:54.495Z,62.98
2018-12-19T14:53:28.606Z,63.09
2018-12-19T14:56:02.372Z,63.00
2018-12-19T14:58:36.353Z,62.96
2018-12-19T15:01:10.149Z,63.00
2018-12-19T15:03:43.953Z,63.03
2018-12-19T15:06:18.485Z,62.83
2018-12-19T15:08:52.244Z,62.81
2018-12-19T15:11:27.035Z,62.89
2018-12-19T15:13:59.705Z,63.21
2018-12-19T15:16:33.473Z,63.24
2018-12-19T15:19:07.333Z,63.13
2018-12-19T15:21:41.113Z,63.50
2018-12-19T15:24:14.933Z,63.90
2018-12-19T15:26:48.776Z,64.25
2018-12-19T15:29:22.564Z,64.20
2018-12-19T15:31:56.703Z,64.17
2018-12-19T15:34:30.520Z,64.40
2018-12-19T15:37:04.399Z,64.62
2018-12-19T15:39:38.125Z,64.47
2018-12-19T15:42:11.915Z,64.76
2018-12-19T15:44:45.686Z,64.64
2018-12-19T15:47:19.490Z,64.63
2018-12-19T15:49:53.245Z,64.58
2018-12-19T15:52:27.079Z,64.85
2018-12-19T15:55:00.845Z,64.79
2018-12-19T15:57:34.593Z,65.06
2018-12-19T16:02:57.726Z,65.11
2018-12-19T16:05:31.830Z,65.19
2018-12-19T16:08:05.660Z,64.80
2018-12-19T16:10:39.724Z,64.94
2018-12-19T16:13:14.234Z,64.37
2018-12-19T16:15:48.058Z,64.57
2018-12-19T16:18:21.869Z,64.83
2018-12-19T16:20:56.407Z,64.95
2018-12-19T16:23:30.969Z,64.97
2018-12-19T16:26:04.683Z,64.70
2018-12-19T16:28:38.417Z,65.00
2018-12-19T16:31:12.185Z,65.38
2018-12-19T16:33:46.020Z,65.01
2018-12-19T16:36:19.748Z,64.80
2018-12-19T16:38:53.565Z,64.71
2018-12-19T16:44:13.967Z,64.50
2018-12-19T16:46:48.797Z,64.53
2018-12-19T16:49:23.340Z,64.58
2018-12-19T16:51:57.105Z,64.32
2018-12-19T16:54:30.915Z,64.61
2018-12-19T16:59:44.590Z,64.63
2018-12-19T17:05:00.517Z,64.26
2018-12-19T17:10:14.530Z,64.05
2018-12-19T17:12:52.703Z,64.31
2018-12-19T17:15:22.413Z,64.63
2018-12-19T17:17:56.238Z,64.46
2018-12-19T17:23:10.253Z,64.34
2018-12-19T17:25:44.726Z,64.43
2018-12-19T17:28:18.903Z,64.66
2018-12-19T17:30:52.672Z,64.46
2018-12-19T17:33:26.409Z,64.50
2018-12-19T17:36:00.208Z,64.10
2018-12-19T17:41:14.969Z,64.07
2018-12-19T17:43:48.788Z,64.57
2018-12-19T17:49:03.202Z,64.30
2018-12-19T17:51:36.915Z,64.23
2018-12-19T17:54:11.095Z,64.29
2018-12-19T17:59:28.937Z,64.70
2018-12-19T18:02:03.773Z,65.24
2018-12-19T18:04:38.642Z,65.51
2018-12-19T18:07:12.429Z,65.54
2018-12-19T18:12:34.569Z,65.80
2018-12-19T18:17:48.575Z,65.54
2018-12-19T18:20:22.637Z,65.82
2018-12-19T18:22:57.182Z,66.16
2018-12-19T18:25:30.994Z,65.86
2018-12-19T18:30:46.149Z,65.94
2018-12-19T18:33:20.628Z,65.98
2018-12-19T18:35:55.070Z,66.31
2018-12-19T18:38:28.837Z,65.78
2018-12-19T18:41:02.944Z,65.67
2018-12-19T18:46:22.604Z,65.55
2018-12-19T18:48:56.676Z,65.68
2018-12-19T18:51:30.845Z,65.43
2018-12-19T18:56:47.063Z,66.26
2018-12-19T18:59:20.799Z,67.00
2018-12-19T19:01:54.606Z,67.01
2018-12-19T19:07:07.833Z,66.82
2018-12-19T19:09:41.619Z,66.86
2018-12-19T19:12:16.754Z,66.88
2018-12-19T19:17:31.217Z,67.19
2018-12-19T19:20:05.727Z,66.88
2018-12-19T19:22:40.566Z,67.27
2018-12-19T19:27:56.081Z,67.19
2018-12-19T19:30:30.551Z,67.03
2018-12-19T19:33:05.001Z,67.17
2018-12-19T19:35:39.546Z,67.72
2018-12-19T19:38:14.021Z,67.92
2018-12-19T19:43:29.561Z,67.69
2018-12-19T19:46:04.073Z,67.96
2018-12-19T19:48:38.334Z,67.63
2018-12-19T19:53:51.613Z,68.58
2018-12-19T19:59:04.894Z,69.30
2018-12-19T20:01:39.433Z,69.37
2018-12-19T20:04:13.553Z,69.15
2018-12-19T20:09:28.764Z,68.62
2018-12-19T20:12:02.586Z,68.66
2018-12-19T20:17:26.990Z,68.62
2018-12-19T20:20:01.585Z,68.76
2018-12-19T20:22:35.465Z,68.95
2018-12-19T20:25:10.016Z,68.76
2018-12-19T20:30:23.569Z,68.67
2018-12-19T20:32:57.617Z,68.60
2018-12-19T20:38:12.966Z,68.91
2018-12-19T20:40:47.027Z,69.29
2018-12-19T20:43:21.229Z,68.77
2018-12-19T20:48:37.185Z,68.81
2018-12-19T20:51:11.693Z,68.84
2018-12-19T20:56:27.645Z,69.38
2018-12-19T21:01:43.113Z,68.85
2018-12-19T21:06:57.180Z,69.15
2018-12-19T21:09:31.726Z,68.88
2018-12-19T21:12:05.550Z,69.05
2018-12-19T21:17:39.240Z,69.54
2018-12-19T21:20:13.733Z,70.22
2018-12-19T21:22:47.553Z,70.16
2018-12-19T21:28:01.144Z,70.00
2018-12-19T21:30:34.950Z,70.33
2018-12-19T21:33:13.954Z,70.35
2018-12-19T21:38:22.589Z,70.18
2018-12-19T21:40:56.238Z,69.57
2018-12-19T21:43:30.100Z,69.74
2018-12-19T21:48:47.337Z,69.86
2018-12-19T21:51:21.835Z,69.71
2018-12-19T21:53:55.628Z,69.76
2018-12-19T21:59:10.402Z,70.06
2018-12-19T22:01:44.156Z,69.96
2018-12-19T22:07:04.589Z,69.86
2018-12-19T22:09:38.351Z,70.16
2018-12-19T22:17:48.354Z,70.49
2018-12-19T22:23:02.531Z,71.18
2018-12-19T22:28:16.010Z,71.32
2018-12-19T22:30:50.070Z,71.51
2018-12-19T22:33:24.780Z,71.43
2018-12-19T22:38:40.068Z,71.69
2018-12-19T22:41:13.725Z,71.82
2018-12-19T22:46:29.425Z,71.03
2018-12-19T22:49:03.115Z,71.42
2018-12-19T22:51:38.055Z,71.34
2018-12-19T22:57:00.378Z,71.35
2018-12-19T22:59:35.007Z,71.01
2018-12-19T23:02:26.892Z,71.27
2018-12-19T23:07:40.148Z,71.28
2018-12-19T23:10:14.210Z,70.78
2018-12-19T23:12:48.036Z,70.54
2018-12-19T23:21:04.164Z,70.46
2018-12-19T23:23:56.580Z,70.80
2018-12-19T23:26:30.486Z,70.38
2018-12-19T23:29:04.541Z,70.38
2018-12-19T23:31:38.273Z,70.25
2018-12-19T23:34:12.180Z,70.50
2018-12-19T23:36:45.875Z,70.49
2018-12-19T23:39:19.641Z,70.53
2018-12-19T23:41:54.158Z,70.37
2018-12-19T23:44:33.819Z,70.37
2018-12-19T23:47:08.286Z,70.54
2018-12-19T23:52:23.741Z,70.65
2018-12-19T23:57:39.274Z,70.52
